sensor_id;sensor_type;location;lat;lon;timestamp;pressure;altitude;pressure_sealevel;temperature;humidity
9672;BME280;4874;43.568;27.824;2023-03-11T00:00:10;97235.47;;;14.58;100.00
9672;BME280;4874;43.568;27.824;2023-03-11T00:02:39;97234.63;;;14.58;100.00
9672;BME280;4874;43.568;27.824;2023-03-11T00:05:07;97171.53;;;14.19;100.00
9672;BME280;4874;43.568;27.824;2023-03-11T00:07:34;97228.06;;;14.60;100.00
9672;BME280;4874;43.568;27.824;2023-03-11T00:10:03;97225.63;;;14.52;100.00
9672;BME280;4874;43.568;27.824;2023-03-11T00:12:30;97232.16;;;14.63;100.00
9672;BME280;4874;43.568;27.824;2023-03-11T00:14:56;97220.06;;;14.60;100.00
9672;BME280;4874;43.568;27.824;2023-03-11T00:17:23;97222.94;;;14.52;100.00
9672;BME280;4874;43.568;27.824;2023-03-11T00:19:50;97225.22;;;14.49;100.00
9672;BME280;4874;43.568;27.824;2023-03-11T00:22:16;97220.09;;;14.47;100.00
9672;BME280;4874;43.568;27.824;2023-03-11T00:24:43;97218.03;;;14.49;100.00
9672;BME280;4874;43.568;27.824;2023-03-11T00:27:09;97209.41;;;14.47;100.00
9672;BME280;4874;43.568;27.824;2023-03-11T00:29:36;97220.72;;;14.43;100.00
9672;BME280;4874;43.568;27.824;2023-03-11T00:32:03;97212.06;;;14.54;100.00
9672;BME280;4874;43.568;27.824;2023-03-11T00:34:29;97210.44;;;14.53;100.00
9672;BME280;4874;43.568;27.824;2023-03-11T00:36:56;97207.72;;;14.59;100.00
9672;BME280;4874;43.568;27.824;2023-03-11T00:39:23;97206.47;;;14.68;100.00
9672;BME280;4874;43.568;27.824;2023-03-11T00:41:49;97199.75;;;14.53;100.00
9672;BME280;4874;43.568;27.824;2023-03-11T00:44:17;97189.91;;;14.47;100.00
9672;BME280;4874;43.568;27.824;2023-03-11T00:46:43;97191.78;;;14.46;100.00
9672;BME280;4874;43.568;27.824;2023-03-11T00:49:10;97191.56;;;14.48;100.00
9672;BME280;4874;43.568;27.824;2023-03-11T00:51:37;97189.53;;;14.43;100.00
9672;BME280;4874;43.568;27.824;2023-03-11T00:54:03;97191.41;;;14.36;100.00
9672;BME280;4874;43.568;27.824;2023-03-11T00:56:30;97192.19;;;14.37;100.00
9672;BME280;4874;43.568;27.824;2023-03-11T00:58:57;97196.94;;;14.41;100.00
9672;BME280;4874;43.568;27.824;2023-03-11T01:01:23;97189.94;;;14.40;100.00
9672;BME280;4874;43.568;27.824;2023-03-11T01:03:50;97192.19;;;14.43;100.00
9672;BME280;4874;43.568;27.824;2023-03-11T01:06:17;97185.00;;;14.44;100.00
9672;BME280;4874;43.568;27.824;2023-03-11T01:08:43;97186.25;;;14.41;100.00
9672;BME280;4874;43.568;27.824;2023-03-11T01:11:10;97183.00;;;14.33;100.00
9672;BME280;4874;43.568;27.824;2023-03-11T01:13:38;97177.03;;;14.24;100.00
9672;BME280;4874;43.568;27.824;2023-03-11T01:16:05;97178.88;;;14.24;100.00
9672;BME280;4874;43.568;27.824;2023-03-11T01:18:34;97171.47;;;14.39;100.00
9672;BME280;4874;43.568;27.824;2023-03-11T01:21:01;97172.31;;;14.33;100.00
9672;BME280;4874;43.568;27.824;2023-03-11T01:23:28;97153.38;;;14.41;100.00
9672;BME280;4874;43.568;27.824;2023-03-11T01:25:55;97151.75;;;14.40;100.00
9672;BME280;4874;43.568;27.824;2023-03-11T01:28:21;97153.34;;;14.47;100.00
9672;BME280;4874;43.568;27.824;2023-03-11T01:30:48;97137.75;;;14.44;100.00
9672;BME280;4874;43.568;27.824;2023-03-11T01:33:16;97139.00;;;14.42;100.00
9672;BME280;4874;43.568;27.824;2023-03-11T01:35:43;97141.66;;;14.48;100.00
9672;BME280;4874;43.568;27.824;2023-03-11T01:38:10;97135.91;;;14.45;100.00
9672;BME280;4874;43.568;27.824;2023-03-11T01:40:41;97132.81;;;14.48;100.00
9672;BME280;4874;43.568;27.824;2023-03-11T01:48:36;97110.56;;;14.60;100.00
9672;BME280;4874;43.568;27.824;2023-03-11T01:51:05;97113.47;;;14.52;100.00
9672;BME280;4874;43.568;27.824;2023-03-11T01:53:32;97100.56;;;14.49;100.00
9672;BME280;4874;43.568;27.824;2023-03-11T01:56:01;97102.66;;;14.41;100.00
9672;BME280;4874;43.568;27.824;2023-03-11T01:58:33;97099.94;;;14.47;100.00
9672;BME280;4874;43.568;27.824;2023-03-11T02:01:01;97099.53;;;14.50;100.00
9672;BME280;4874;43.568;27.824;2023-03-11T02:03:32;97079.69;;;14.33;100.00
9672;BME280;4874;43.568;27.824;2023-03-11T02:06:02;97093.03;;;14.40;100.00
9672;BME280;4874;43.568;27.824;2023-03-11T02:08:29;97113.75;;;14.44;100.00
9672;BME280;4874;43.568;27.824;2023-03-11T02:11:01;97081.53;;;14.39;100.00
9672;BME280;4874;43.568;27.824;2023-03-11T02:13:31;97105.91;;;14.49;100.00
9672;BME280;4874;43.568;27.824;2023-03-11T02:16:01;97099.91;;;14.60;100.00
9672;BME280;4874;43.568;27.824;2023-03-11T02:18:28;97110.13;;;14.63;100.00
9672;BME280;4874;43.568;27.824;2023-03-11T02:21:28;97103.81;;;14.58;100.00
9672;BME280;4874;43.568;27.824;2023-03-11T02:26:40;97095.28;;;14.74;100.00
9672;BME280;4874;43.568;27.824;2023-03-11T02:29:10;97095.69;;;14.71;100.00
9672;BME280;4874;43.568;27.824;2023-03-11T02:31:38;97112.97;;;14.68;100.00
9672;BME280;4874;43.568;27.824;2023-03-11T02:34:15;97101.31;;;14.63;100.00
9672;BME280;4874;43.568;27.824;2023-03-11T02:36:44;97100.84;;;14.72;100.00
9672;BME280;4874;43.568;27.824;2023-03-11T02:39:11;97095.44;;;14.79;100.00
9672;BME280;4874;43.568;27.824;2023-03-11T02:41:39;97093.56;;;14.86;100.00
9672;BME280;4874;43.568;27.824;2023-03-11T02:44:09;97087.50;;;14.66;100.00
9672;BME280;4874;43.568;27.824;2023-03-11T02:46:39;97081.53;;;14.70;100.00
9672;BME280;4874;43.568;27.824;2023-03-11T02:49:07;97090.97;;;14.73;100.00
9672;BME280;4874;43.568;27.824;2023-03-11T02:51:35;97089.91;;;14.80;100.00
9672;BME280;4874;43.568;27.824;2023-03-11T02:54:02;97104.47;;;14.78;100.00
9672;BME280;4874;43.568;27.824;2023-03-11T02:56:30;97087.34;;;14.61;100.00
9672;BME280;4874;43.568;27.824;2023-03-11T02:58:56;97085.72;;;14.84;100.00
9672;BME280;4874;43.568;27.824;2023-03-11T03:01:23;97080.50;;;14.71;100.00
9672;BME280;4874;43.568;27.824;2023-03-11T03:03:50;97044.88;;;14.53;100.00
9672;BME280;4874;43.568;27.824;2023-03-11T03:06:17;97073.78;;;14.62;100.00
9672;BME280;4874;43.568;27.824;2023-03-11T03:08:44;97062.19;;;14.75;100.00
9672;BME280;4874;43.568;27.824;2023-03-11T03:11:11;97070.59;;;14.78;100.00
9672;BME280;4874;43.568;27.824;2023-03-11T03:13:37;97076.09;;;14.83;100.00
9672;BME280;4874;43.568;27.824;2023-03-11T03:16:04;97077.91;;;14.89;100.00
9672;BME280;4874;43.568;27.824;2023-03-11T03:18:31;97069.63;;;14.97;100.00
9672;BME280;4874;43.568;27.824;2023-03-11T03:20:58;97073.75;;;14.93;100.00
9672;BME280;4874;43.568;27.824;2023-03-11T03:23:24;97073.75;;;14.93;100.00
9672;BME280;4874;43.568;27.824;2023-03-11T03:25:51;97062.84;;;14.95;100.00
9672;BME280;4874;43.568;27.824;2023-03-11T03:28:17;97053.09;;;15.07;100.00
9672;BME280;4874;43.568;27.824;2023-03-11T03:30:44;97034.19;;;14.84;100.00
9672;BME280;4874;43.568;27.824;2023-03-11T03:33:11;97046.56;;;15.03;100.00
9672;BME280;4874;43.568;27.824;2023-03-11T03:35:42;97043.50;;;14.75;100.00
9672;BME280;4874;43.568;27.824;2023-03-11T03:38:10;97034.19;;;14.84;100.00
9672;BME280;4874;43.568;27.824;2023-03-11T03:40:37;97044.38;;;14.93;100.00
9672;BME280;4874;43.568;27.824;2023-03-11T03:43:04;97015.03;;;14.62;100.00
9672;BME280;4874;43.568;27.824;2023-03-11T03:45:31;97036.91;;;14.77;100.00
9672;BME280;4874;43.568;27.824;2023-03-11T03:47:58;97034.09;;;14.66;100.00
9672;BME280;4874;43.568;27.824;2023-03-11T03:50:25;97034.19;;;14.84;100.00
9672;BME280;4874;43.568;27.824;2023-03-11T03:52:51;97027.09;;;14.96;100.00
9672;BME280;4874;43.568;27.824;2023-03-11T03:55:18;97029.59;;;14.91;100.00
9672;BME280;4874;43.568;27.824;2023-03-11T03:57:44;97028.63;;;14.85;100.00
9672;BME280;4874;43.568;27.824;2023-03-11T04:00:12;97020.53;;;14.92;100.00
9672;BME280;4874;43.568;27.824;2023-03-11T04:02:39;97003.16;;;14.83;100.00
9672;BME280;4874;43.568;27.824;2023-03-11T04:05:06;97011.81;;;14.78;100.00
9672;BME280;4874;43.568;27.824;2023-03-11T04:07:34;97004.25;;;14.75;100.00
9672;BME280;4874;43.568;27.824;2023-03-11T04:10:02;97001.53;;;14.82;100.00
9672;BME280;4874;43.568;27.824;2023-03-11T04:12:29;96999.16;;;14.92;100.00
9672;BME280;4874;43.568;27.824;2023-03-11T04:14:56;97000.00;;;14.92;100.00
9672;BME280;4874;43.568;27.824;2023-03-11T04:17:23;96958.03;;;14.75;100.00
9672;BME280;4874;43.568;27.824;2023-03-11T04:19:50;96982.16;;;14.86;100.00
9672;BME280;4874;43.568;27.824;2023-03-11T04:22:17;96992.53;;;14.76;100.00
9672;BME280;4874;43.568;27.824;2023-03-11T04:24:43;96996.41;;;14.80;100.00
9672;BME280;4874;43.568;27.824;2023-03-11T04:27:10;96991.13;;;14.74;100.00
9672;BME280;4874;43.568;27.824;2023-03-11T04:29:36;96971.00;;;14.71;100.00
9672;BME280;4874;43.568;27.824;2023-03-11T04:32:03;96974.56;;;14.65;100.00
9672;BME280;4874;43.568;27.824;2023-03-11T04:34:30;96965.75;;;14.83;100.00
9672;BME280;4874;43.568;27.824;2023-03-11T04:36:56;96974.28;;;14.73;100.00
9672;BME280;4874;43.568;27.824;2023-03-11T04:39:23;96936.56;;;14.63;100.00
9672;BME280;4874;43.568;27.824;2023-03-11T04:41:50;96984.97;;;14.73;100.00
9672;BME280;4874;43.568;27.824;2023-03-11T04:44:16;96979.78;;;14.78;100.00
9672;BME280;4874;43.568;27.824;2023-03-11T04:46:43;96964.41;;;14.74;100.00
9672;BME280;4874;43.568;27.824;2023-03-11T04:49:10;96966.00;;;14.57;100.00
9672;BME280;4874;43.568;27.824;2023-03-11T04:51:37;96953.75;;;14.74;100.00
9672;BME280;4874;43.568;27.824;2023-03-11T04:54:04;96956.44;;;14.92;100.00
9672;BME280;4874;43.568;27.824;2023-03-11T04:56:30;96974.03;;;14.99;100.00
9672;BME280;4874;43.568;27.824;2023-03-11T04:58:57;96974.16;;;14.86;100.00
9672;BME280;4874;43.568;27.824;2023-03-11T05:01:24;96957.84;;;14.94;100.00
9672;BME280;4874;43.568;27.824;2023-03-11T05:03:51;96975.78;;;14.87;100.00
9672;BME280;4874;43.568;27.824;2023-03-11T05:06:17;96965.72;;;14.89;100.00
9672;BME280;4874;43.568;27.824;2023-03-11T05:08:44;96952.84;;;14.80;100.00
9672;BME280;4874;43.568;27.824;2023-03-11T05:11:11;96883.34;;;14.44;100.00
9672;BME280;4874;43.568;27.824;2023-03-11T05:13:38;96954.75;;;14.97;100.00
9672;BME280;4874;43.568;27.824;2023-03-11T05:16:04;96956.50;;;15.03;100.00
9672;BME280;4874;43.568;27.824;2023-03-11T05:18:31;96951.75;;;14.87;100.00
9672;BME280;4874;43.568;27.824;2023-03-11T05:20:59;96949.88;;;14.88;100.00
9672;BME280;4874;43.568;27.824;2023-03-11T05:23:25;96943.06;;;14.92;100.00
9672;BME280;4874;43.568;27.824;2023-03-11T05:25:52;96951.47;;;14.95;100.00
9672;BME280;4874;43.568;27.824;2023-03-11T05:28:19;96937.59;;;15.05;100.00
9672;BME280;4874;43.568;27.824;2023-03-11T05:30:45;96934.19;;;15.16;100.00
9672;BME280;4874;43.568;27.824;2023-03-11T05:33:12;96941.16;;;14.99;100.00
9672;BME280;4874;43.568;27.824;2023-03-11T05:35:39;96928.13;;;14.84;100.00
9672;BME280;4874;43.568;27.824;2023-03-11T05:38:05;96924.44;;;15.03;100.00
9672;BME280;4874;43.568;27.824;2023-03-11T05:40:33;96917.09;;;14.99;100.00
9672;BME280;4874;43.568;27.824;2023-03-11T05:42:59;96926.09;;;15.22;100.00
9672;BME280;4874;43.568;27.824;2023-03-11T05:45:26;96921.34;;;15.24;100.00
9672;BME280;4874;43.568;27.824;2023-03-11T05:47:53;96927.34;;;15.38;100.00
9672;BME280;4874;43.568;27.824;2023-03-11T05:50:20;96922.97;;;15.25;100.00
9672;BME280;4874;43.568;27.824;2023-03-11T05:52:46;96918.91;;;15.41;100.00
9672;BME280;4874;43.568;27.824;2023-03-11T05:55:13;96917.72;;;15.55;100.00
9672;BME280;4874;43.568;27.824;2023-03-11T05:57:40;96918.72;;;15.43;100.00
9672;BME280;4874;43.568;27.824;2023-03-11T06:00:09;96923.09;;;15.67;100.00
9672;BME280;4874;43.568;27.824;2023-03-11T06:02:39;96929.03;;;15.87;100.00
9672;BME280;4874;43.568;27.824;2023-03-11T06:05:07;96911.75;;;16.01;100.00
9672;BME280;4874;43.568;27.824;2023-03-11T06:07:35;96908.13;;;16.07;100.00
9672;BME280;4874;43.568;27.824;2023-03-11T06:10:03;96923.22;;;16.31;100.00
9672;BME280;4874;43.568;27.824;2023-03-11T06:12:32;96918.25;;;16.58;100.00
9672;BME280;4874;43.568;27.824;2023-03-11T06:14:59;96918.09;;;16.41;100.00
9672;BME280;4874;43.568;27.824;2023-03-11T06:17:26;96915.22;;;16.54;100.00
9672;BME280;4874;43.568;27.824;2023-03-11T06:19:55;96920.03;;;16.52;100.00
9672;BME280;4874;43.568;27.824;2023-03-11T06:22:22;96922.50;;;16.88;100.00
9672;BME280;4874;43.568;27.824;2023-03-11T06:24:49;96916.97;;;16.83;100.00
9672;BME280;4874;43.568;27.824;2023-03-11T06:27:16;96920.16;;;16.57;100.00
9672;BME280;4874;43.568;27.824;2023-03-11T06:29:42;96906.16;;;16.67;100.00
9672;BME280;4874;43.568;27.824;2023-03-11T06:32:09;96915.16;;;16.61;100.00
9672;BME280;4874;43.568;27.824;2023-03-11T06:34:36;96921.41;;;16.66;100.00
9672;BME280;4874;43.568;27.824;2023-03-11T06:37:03;96834.16;;;16.24;100.00
9672;BME280;4874;43.568;27.824;2023-03-11T06:39:29;96908.16;;;16.71;100.00
9672;BME280;4874;43.568;27.824;2023-03-11T06:41:56;96909.91;;;16.66;100.00
9672;BME280;4874;43.568;27.824;2023-03-11T06:44:26;96898.34;;;16.77;100.00
9672;BME280;4874;43.568;27.824;2023-03-11T06:46:53;96902.31;;;16.86;100.00
9672;BME280;4874;43.568;27.824;2023-03-11T06:49:20;96891.88;;;17.35;100.00
9672;BME280;4874;43.568;27.824;2023-03-11T06:51:47;96893.72;;;16.72;100.00
9672;BME280;4874;43.568;27.824;2023-03-11T06:54:13;96901.28;;;16.75;100.00
9672;BME280;4874;43.568;27.824;2023-03-11T06:56:40;96891.59;;;16.63;100.00
9672;BME280;4874;43.568;27.824;2023-03-11T06:59:07;96879.50;;;16.60;100.00
9672;BME280;4874;43.568;27.824;2023-03-11T07:01:35;96884.25;;;16.70;100.00
9672;BME280;4874;43.568;27.824;2023-03-11T07:04:02;96877.75;;;16.77;100.00
9672;BME280;4874;43.568;27.824;2023-03-11T07:06:29;96876.69;;;16.67;100.00
9672;BME280;4874;43.568;27.824;2023-03-11T07:08:56;96874.81;;;16.90;100.00
9672;BME280;4874;43.568;27.824;2023-03-11T07:11:26;96873.53;;;16.70;100.00
9672;BME280;4874;43.568;27.824;2023-03-11T07:13:53;96891.50;;;16.81;100.00
9672;BME280;4874;43.568;27.824;2023-03-11T07:16:25;96878.47;;;16.73;100.00
9672;BME280;4874;43.568;27.824;2023-03-11T07:18:55;96857.94;;;16.67;100.00
9672;BME280;4874;43.568;27.824;2023-03-11T07:21:24;96877.50;;;16.79;100.00
9672;BME280;4874;43.568;27.824;2023-03-11T07:23:53;96861.75;;;16.94;100.00
9672;BME280;4874;43.568;27.824;2023-03-11T07:26:20;96870.97;;;17.49;100.00
9672;BME280;4874;43.568;27.824;2023-03-11T07:28:47;96865.09;;;17.64;100.00
9672;BME280;4874;43.568;27.824;2023-03-11T07:31:20;96862.22;;;17.42;100.00
9672;BME280;4874;43.568;27.824;2023-03-11T07:33:49;96863.38;;;17.57;100.00
9672;BME280;4874;43.568;27.824;2023-03-11T07:36:18;96855.03;;;17.71;100.00
9672;BME280;4874;43.568;27.824;2023-03-11T07:38:46;96856.47;;;17.62;100.00
9672;BME280;4874;43.568;27.824;2023-03-11T07:41:14;96862.16;;;17.93;100.00
9672;BME280;4874;43.568;27.824;2023-03-11T07:43:42;96851.59;;;18.03;100.00
9672;BME280;4874;43.568;27.824;2023-03-11T07:46:13;96847.09;;;17.92;100.00
9672;BME280;4874;43.568;27.824;2023-03-11T07:48:49;96839.84;;;17.76;100.00
9672;BME280;4874;43.568;27.824;2023-03-11T07:51:24;96849.72;;;17.87;100.00
9672;BME280;4874;43.568;27.824;2023-03-11T07:53:53;96833.44;;;17.49;100.00
9672;BME280;4874;43.568;27.824;2023-03-11T07:56:21;96832.84;;;17.47;100.00
9672;BME280;4874;43.568;27.824;2023-03-11T07:58:50;96825.75;;;17.41;100.00
9672;BME280;4874;43.568;27.824;2023-03-11T08:01:20;96811.13;;;17.60;100.00
9672;BME280;4874;43.568;27.824;2023-03-11T08:03:48;96817.50;;;17.87;100.00
9672;BME280;4874;43.568;27.824;2023-03-11T08:06:21;96812.63;;;17.84;100.00
9672;BME280;4874;43.568;27.824;2023-03-11T08:08:49;96831.00;;;17.92;100.00
9672;BME280;4874;43.568;27.824;2023-03-11T08:11:17;96826.88;;;18.18;100.00
9672;BME280;4874;43.568;27.824;2023-03-11T08:13:45;96817.41;;;17.82;100.00
9672;BME280;4874;43.568;27.824;2023-03-11T08:16:14;96824.56;;;17.77;100.00
9672;BME280;4874;43.568;27.824;2023-03-11T08:18:42;96793.84;;;17.56;100.00
9672;BME280;4874;43.568;27.824;2023-03-11T08:21:11;96822.72;;;18.10;100.00
9672;BME280;4874;43.568;27.824;2023-03-11T08:23:39;96817.53;;;18.92;100.00
9672;BME280;4874;43.568;27.824;2023-03-11T08:26:07;96806.88;;;19.02;100.00
9672;BME280;4874;43.568;27.824;2023-03-11T08:28:35;96817.38;;;18.82;100.00
9672;BME280;4874;43.568;27.824;2023-03-11T08:31:03;96804.72;;;18.99;100.00
9672;BME280;4874;43.568;27.824;2023-03-11T08:33:37;96804.00;;;19.78;100.00
9672;BME280;4874;43.568;27.824;2023-03-11T08:36:03;96804.03;;;18.70;100.00
9672;BME280;4874;43.568;27.824;2023-03-11T08:38:30;96799.69;;;18.86;100.00
9672;BME280;4874;43.568;27.824;2023-03-11T08:40:57;96802.03;;;18.27;100.00
9672;BME280;4874;43.568;27.824;2023-03-11T08:43:24;96798.13;;;18.68;100.00
9672;BME280;4874;43.568;27.824;2023-03-11T08:45:50;96792.44;;;19.29;100.00
9672;BME280;4874;43.568;27.824;2023-03-11T08:48:17;96802.34;;;18.31;100.00
9672;BME280;4874;43.568;27.824;2023-03-11T08:50:44;96797.03;;;18.47;100.00
9672;BME280;4874;43.568;27.824;2023-03-11T08:53:20;96795.19;;;18.69;100.00
9672;BME280;4874;43.568;27.824;2023-03-11T08:55:51;96791.22;;;18.55;100.00
9672;BME280;4874;43.568;27.824;2023-03-11T08:58:19;96831.16;;;18.02;100.00
9672;BME280;4874;43.568;27.824;2023-03-11T09:00:46;96837.69;;;16.71;100.00
9672;BME280;4874;43.568;27.824;2023-03-11T09:03:12;96826.72;;;16.14;100.00
9672;BME280;4874;43.568;27.824;2023-03-11T09:05:40;96833.91;;;15.61;100.00
9672;BME280;4874;43.568;27.824;2023-03-11T09:08:07;96844.47;;;15.38;100.00
9672;BME280;4874;43.568;27.824;2023-03-11T09:10:33;96843.44;;;15.69;100.00
9672;BME280;4874;43.568;27.824;2023-03-11T09:13:00;96822.91;;;15.03;100.00
9672;BME280;4874;43.568;27.824;2023-03-11T09:15:27;96821.28;;;15.02;100.00
9672;BME280;4874;43.568;27.824;2023-03-11T09:17:54;96787.09;;;14.75;100.00
9672;BME280;4874;43.568;27.824;2023-03-11T09:20:21;96831.38;;;15.00;100.00
9672;BME280;4874;43.568;27.824;2023-03-11T09:22:48;96841.63;;;15.21;100.00
9672;BME280;4874;43.568;27.824;2023-03-11T09:25:14;96838.28;;;15.08;100.00
9672;BME280;4874;43.568;27.824;2023-03-11T09:27:41;96849.78;;;15.26;100.00
9672;BME280;4874;43.568;27.824;2023-03-11T09:30:09;96849.91;;;15.13;100.00
9672;BME280;4874;43.568;27.824;2023-03-11T09:32:36;96852.91;;;15.05;100.00
9672;BME280;4874;43.568;27.824;2023-03-11T09:35:03;96840.75;;;15.09;100.00
9672;BME280;4874;43.568;27.824;2023-03-11T09:37:30;96841.69;;;15.15;100.00
9672;BME280;4874;43.568;27.824;2023-03-11T09:39:57;96842.50;;;15.15;100.00
9672;BME280;4874;43.568;27.824;2023-03-11T09:45:31;96849.47;;;15.53;100.00
9672;BME280;4874;43.568;27.824;2023-03-11T09:48:23;96844.41;;;15.45;100.00
9672;BME280;4874;43.568;27.824;2023-03-11T09:54:05;96825.75;;;15.56;100.00
9672;BME280;4874;43.568;27.824;2023-03-11T09:56:36;96841.44;;;15.94;100.00
9672;BME280;4874;43.568;27.824;2023-03-11T09:59:07;96842.47;;;15.52;100.00
9672;BME280;4874;43.568;27.824;2023-03-11T10:01:39;96840.00;;;15.68;100.00
9672;BME280;4874;43.568;27.824;2023-03-11T10:04:22;96842.78;;;15.73;100.00
9672;BME280;4874;43.568;27.824;2023-03-11T10:07:14;96835.56;;;15.74;100.00
9672;BME280;4874;43.568;27.824;2023-03-11T10:09:56;96825.03;;;15.90;100.00
9672;BME280;4874;43.568;27.824;2023-03-11T10:20:25;96822.97;;;16.04;100.00
9672;BME280;4874;43.568;27.824;2023-03-11T10:25:45;96831.94;;;16.21;100.00
9672;BME280;4874;43.568;27.824;2023-03-11T10:28:21;96814.00;;;16.10;100.00
9672;BME280;4874;43.568;27.824;2023-03-11T10:31:06;96830.88;;;16.33;100.00
9672;BME280;4874;43.568;27.824;2023-03-11T10:37:04;96823.19;;;16.14;100.00
9672;BME280;4874;43.568;27.824;2023-03-11T10:39:36;96811.69;;;16.36;100.00
9672;BME280;4874;43.568;27.824;2023-03-11T10:42:05;96812.06;;;16.52;100.00
9672;BME280;4874;43.568;27.824;2023-03-11T10:44:38;96800.41;;;16.34;100.00
9672;BME280;4874;43.568;27.824;2023-03-11T10:47:13;96801.22;;;16.35;100.00
9672;BME280;4874;43.568;27.824;2023-03-11T10:49:41;96794.81;;;16.48;100.00
9672;BME280;4874;43.568;27.824;2023-03-11T10:52:07;96782.94;;;16.67;100.00
9672;BME280;4874;43.568;27.824;2023-03-11T10:54:40;96781.91;;;16.68;100.00
9672;BME280;4874;43.568;27.824;2023-03-11T10:57:22;96792.66;;;16.96;100.00
9672;BME280;4874;43.568;27.824;2023-03-11T10:59:54;96772.22;;;16.67;100.00
9672;BME280;4874;43.568;27.824;2023-03-11T11:02:40;96778.63;;;17.17;100.00
9672;BME280;4874;43.568;27.824;2023-03-11T11:07:47;96759.66;;;16.95;100.00
9672;BME280;4874;43.568;27.824;2023-03-11T11:10:20;96752.06;;;16.41;100.00
9672;BME280;4874;43.568;27.824;2023-03-11T11:12:54;96742.59;;;16.85;100.00
9672;BME280;4874;43.568;27.824;2023-03-11T11:15:30;96747.72;;;16.75;100.00
9672;BME280;4874;43.568;27.824;2023-03-11T11:18:02;96743.84;;;16.94;100.00
9672;BME280;4874;43.568;27.824;2023-03-11T11:20:31;96712.41;;;16.03;100.00
9672;BME280;4874;43.568;27.824;2023-03-11T11:23:00;96729.41;;;16.83;100.00
9672;BME280;4874;43.568;27.824;2023-03-11T11:25:39;96719.53;;;16.84;100.00
9672;BME280;4874;43.568;27.824;2023-03-11T11:28:15;96721.06;;;17.08;100.00
9672;BME280;4874;43.568;27.824;2023-03-11T11:30:57;96711.91;;;17.20;100.00
9672;BME280;4874;43.568;27.824;2023-03-11T11:33:30;96714.28;;;17.33;100.00
9672;BME280;4874;43.568;27.824;2023-03-11T11:36:00;96689.00;;;16.85;100.00
9672;BME280;4874;43.568;27.824;2023-03-11T11:38:28;96710.38;;;16.68;100.00
9672;BME280;4874;43.568;27.824;2023-03-11T11:40:58;96725.22;;;16.87;100.00
9672;BME280;4874;43.568;27.824;2023-03-11T11:43:47;96719.72;;;16.94;100.00
9672;BME280;4874;43.568;27.824;2023-03-11T11:46:41;96725.97;;;16.71;100.00
9672;BME280;4874;43.568;27.824;2023-03-11T11:49:23;96647.03;;;15.99;100.00
9672;BME280;4874;43.568;27.824;2023-03-11T11:51:58;96718.78;;;16.60;100.00
9672;BME280;4874;43.568;27.824;2023-03-11T11:54:30;96714.13;;;16.44;100.00
9672;BME280;4874;43.568;27.824;2023-03-11T11:56:59;96674.56;;;16.34;100.00
9672;BME280;4874;43.568;27.824;2023-03-11T11:59:30;96718.03;;;16.76;100.00
9672;BME280;4874;43.568;27.824;2023-03-11T12:07:35;96716.69;;;16.90;100.00
9672;BME280;4874;43.568;27.824;2023-03-11T12:10:21;96718.44;;;16.96;100.00
9672;BME280;4874;43.568;27.824;2023-03-11T12:20:58;96730.84;;;16.74;100.00
9672;BME280;4874;43.568;27.824;2023-03-11T12:26:25;96726.53;;;16.85;100.00
9672;BME280;4874;43.568;27.824;2023-03-11T12:29:03;96729.69;;;17.10;100.00
9672;BME280;4874;43.568;27.824;2023-03-11T12:31:36;96739.31;;;17.22;100.00
9672;BME280;4874;43.568;27.824;2023-03-11T12:34:09;96733.53;;;17.14;100.00
9672;BME280;4874;43.568;27.824;2023-03-11T12:36:38;96741.59;;;17.30;100.00
9672;BME280;4874;43.568;27.824;2023-03-11T12:39:07;96738.50;;;17.22;100.00
9672;BME280;4874;43.568;27.824;2023-03-11T12:41:45;96722.97;;;16.96;100.00
9672;BME280;4874;43.568;27.824;2023-03-11T12:44:26;96745.03;;;16.86;100.00
9672;BME280;4874;43.568;27.824;2023-03-11T12:49:28;96737.91;;;17.20;100.00
9672;BME280;4874;43.568;27.824;2023-03-11T12:52:05;96726.22;;;16.98;100.00
9672;BME280;4874;43.568;27.824;2023-03-11T12:54:45;96740.03;;;17.46;100.00
9672;BME280;4874;43.568;27.824;2023-03-11T13:06:09;96745.63;;;16.88;100.00
9672;BME280;4874;43.568;27.824;2023-03-11T13:08:47;96750.94;;;17.00;100.00
9672;BME280;4874;43.568;27.824;2023-03-11T13:14:09;96750.75;;;16.78;100.00
9672;BME280;4874;43.568;27.824;2023-03-11T13:16:42;96738.47;;;16.66;100.00
9672;BME280;4874;43.568;27.824;2023-03-11T13:21:55;96719.47;;;16.67;100.00
9672;BME280;4874;43.568;27.824;2023-03-11T13:40:40;96736.34;;;16.44;100.00
9672;BME280;4874;43.568;27.824;2023-03-11T13:43:16;96733.34;;;16.53;100.00
9672;BME280;4874;43.568;27.824;2023-03-11T13:45:50;96729.75;;;16.47;100.00
9672;BME280;4874;43.568;27.824;2023-03-11T13:48:27;96644.22;;;16.17;100.00
9672;BME280;4874;43.568;27.824;2023-03-11T13:51:00;96720.19;;;16.39;100.00
9672;BME280;4874;43.568;27.824;2023-03-11T13:53:43;96720.31;;;16.33;100.00
9672;BME280;4874;43.568;27.824;2023-03-11T13:56:22;96721.81;;;16.40;100.00
9672;BME280;4874;43.568;27.824;2023-03-11T13:58:51;96731.38;;;16.36;100.00
9672;BME280;4874;43.568;27.824;2023-03-11T14:01:18;96710.41;;;16.45;100.00
9672;BME280;4874;43.568;27.824;2023-03-11T14:03:46;96712.63;;;16.36;100.00
9672;BME280;4874;43.568;27.824;2023-03-11T14:06:16;96716.94;;;16.49;100.00
9672;BME280;4874;43.568;27.824;2023-03-11T14:08:56;96711.13;;;16.80;100.00
9672;BME280;4874;43.568;27.824;2023-03-11T14:11:27;96693.41;;;16.39;100.00
9672;BME280;4874;43.568;27.824;2023-03-11T14:13:57;96710.84;;;16.65;100.00
9672;BME280;4874;43.568;27.824;2023-03-11T14:19:15;96716.25;;;16.82;100.00
9672;BME280;4874;43.568;27.824;2023-03-11T14:21:43;96722.38;;;16.42;100.00
9672;BME280;4874;43.568;27.824;2023-03-11T14:24:19;96718.53;;;16.62;100.00
9672;BME280;4874;43.568;27.824;2023-03-11T14:26:50;96719.31;;;16.74;100.00
9672;BME280;4874;43.568;27.824;2023-03-11T14:29:37;96727.44;;;16.51;100.00
9672;BME280;4874;43.568;27.824;2023-03-11T14:32:30;96728.31;;;16.56;100.00
9672;BME280;4874;43.568;27.824;2023-03-11T14:34:57;96725.31;;;16.64;100.00